Time;durP1;ratioP1;P1;durP2;ratioP2;P2;SDS_P1;SDS_P2;PMS_P1;PMS_P2;Temp;Humidity;BMP_temperature;BMP_pressure;BME280_temperature;BME280_humidity;BME280_pressure;Samples;Min_cycle;Max_cycle;Signal;HPM_P1;HPM_P2
2023/02/06 00:01:18;;;;;;;14.80;4.23;;;7.60;99.90;;;;;;4887335;29;20420;-75
2023/02/06 00:03:44;;;;;;;10.10;3.20;;;7.60;99.90;;;;;;4880851;29;20477;-74
2023/02/06 00:06:10;;;;;;;12.97;3.60;;;7.60;99.90;;;;;;4889170;29;20992;-74
2023/02/06 00:08:36;;;;;;;15.93;4.33;;;7.60;99.90;;;;;;4859991;29;20410;-75
2023/02/06 00:11:06;;;;;;;11.47;3.90;;;7.60;99.90;;;;;;4884756;29;20820;-74
2023/02/06 00:13:33;;;;;;;19.20;6.00;;;7.60;99.90;;;;;;4890085;29;20520;-74
2023/02/06 00:15:59;;;;;;;8.73;3.60;;;7.50;99.90;;;;;;4850977;29;20504;-74
2023/02/06 00:18:25;;;;;;;12.60;3.93;;;7.60;99.90;;;;;;4897027;29;20482;-74
2023/02/06 00:20:54;;;;;;;14.50;3.70;;;7.50;99.90;;;;;;4883177;29;20451;-75
2023/02/06 00:23:20;;;;;;;12.03;3.60;;;7.50;99.90;;;;;;4888103;29;20526;-75
2023/02/06 00:25:46;;;;;;;19.63;4.20;;;7.50;99.90;;;;;;4884659;29;20538;-74
2023/02/06 00:28:14;;;;;;;7.13;3.30;;;7.50;99.90;;;;;;4874779;29;20803;-74
2023/02/06 00:30:42;;;;;;;19.97;3.80;;;7.50;99.90;;;;;;4860210;29;20461;-74
2023/02/06 00:33:08;;;;;;;10.50;3.80;;;7.50;99.90;;;;;;4878098;29;20445;-74
2023/02/06 00:35:35;;;;;;;11.60;3.73;;;7.50;99.90;;;;;;4873387;29;20463;-75
2023/02/06 00:38:01;;;;;;;11.23;3.43;;;7.50;99.90;;;;;;4895647;29;20415;-74
2023/02/06 00:40:27;;;;;;;13.33;3.10;;;7.50;99.90;;;;;;4879078;29;20422;-75
2023/02/06 00:42:56;;;;;;;10.00;4.30;;;7.50;99.90;;;;;;4870605;29;20461;-74
2023/02/06 00:45:22;;;;;;;14.40;3.23;;;7.50;99.90;;;;;;4896798;29;20459;-74
2023/02/06 00:47:55;;;;;;;9.80;3.43;;;7.40;99.90;;;;;;4881307;29;20440;-74
2023/02/06 00:50:21;;;;;;;10.73;3.50;;;7.40;99.90;;;;;;4896389;29;20427;-75
2023/02/06 00:52:49;;;;;;;11.57;3.80;;;7.40;99.90;;;;;;4891958;29;20444;-74
2023/02/06 00:55:17;;;;;;;10.60;4.20;;;7.40;99.90;;;;;;4885828;29;20476;-74
2023/02/06 00:57:48;;;;;;;10.87;2.87;;;7.40;99.90;;;;;;4897285;29;21012;-74
2023/02/06 01:00:15;;;;;;;8.50;2.97;;;7.40;99.90;;;;;;4873826;29;20854;-74
2023/02/06 01:02:43;;;;;;;10.33;3.30;;;7.40;99.90;;;;;;4878020;29;20871;-75
2023/02/06 01:05:09;;;;;;;13.33;3.43;;;7.40;99.90;;;;;;4862667;29;20516;-74
2023/02/06 01:07:38;;;;;;;8.40;4.20;;;7.40;99.90;;;;;;4877738;29;20475;-74
2023/02/06 01:10:04;;;;;;;12.90;3.60;;;7.40;99.90;;;;;;4877959;29;20505;-74
2023/02/06 01:12:32;;;;;;;10.40;3.73;;;7.40;99.90;;;;;;4880892;29;20439;-74
2023/02/06 01:15:01;;;;;;;9.20;3.53;;;7.40;99.90;;;;;;4887349;29;20851;-75
2023/02/06 01:17:30;;;;;;;15.83;3.83;;;7.30;99.90;;;;;;4862368;29;20421;-75
2023/02/06 01:19:59;;;;;;;10.67;4.27;;;7.30;99.90;;;;;;4892585;29;20456;-74
2023/02/06 01:22:28;;;;;;;15.20;3.63;;;7.30;99.90;;;;;;4893150;29;21005;-75
2023/02/06 01:24:59;;;;;;;14.67;4.00;;;7.30;99.90;;;;;;4960275;23;20966;-73
2023/02/06 01:27:25;;;;;;;12.10;3.60;;;7.30;99.90;;;;;;4880620;29;20452;-72
2023/02/06 01:29:51;;;;;;;8.30;3.30;;;7.30;99.90;;;;;;4889466;29;20459;-72
2023/02/06 01:32:17;;;;;;;11.83;3.73;;;7.30;99.90;;;;;;4867599;29;20511;-73
2023/02/06 01:34:43;;;;;;;8.30;3.80;;;7.30;99.90;;;;;;4877863;29;20434;-73
2023/02/06 01:37:09;;;;;;;9.10;4.07;;;7.30;99.90;;;;;;4878075;29;20452;-73
2023/02/06 01:39:38;;;;;;;11.43;3.47;;;7.20;99.90;;;;;;4882846;29;20476;-73
2023/02/06 01:42:09;;;;;;;12.90;3.10;;;7.20;99.90;;;;;;4865098;29;20456;-74
2023/02/06 01:44:35;;;;;;;12.17;4.33;;;7.20;99.90;;;;;;4880599;29;20454;-73
2023/02/06 01:47:01;;;;;;;15.43;4.60;;;7.20;99.90;;;;;;4895935;29;20455;-74
2023/02/06 01:49:44;;;;;;;12.07;3.73;;;7.20;99.90;;;;;;4896116;29;20448;-74
2023/02/06 01:52:29;;;;;;;15.87;4.07;;;7.20;99.90;;;;;;4880150;29;20461;-74
2023/02/06 01:55:01;;;;;;;16.27;5.07;;;7.20;99.90;;;;;;4888023;29;20444;-73
2023/02/06 01:57:32;;;;;;;6.63;3.55;;;7.20;99.90;;;;;;4880581;29;20455;-74
2023/02/06 02:00:04;;;;;;;11.43;3.30;;;7.20;99.90;;;;;;4865003;29;20183;-73
2023/02/06 02:02:43;;;;;;;10.30;4.20;;;7.20;99.90;;;;;;4895967;29;20463;-73
2023/02/06 02:05:13;;;;;;;13.83;3.97;;;7.10;99.90;;;;;;4895610;29;20440;-73
2023/02/06 02:07:59;;;;;;;12.17;3.70;;;7.10;99.90;;;;;;4880377;29;20514;-74
2023/02/06 02:10:29;;;;;;;17.37;3.47;;;7.10;99.90;;;;;;4880610;29;20445;-73
2023/02/06 02:12:55;;;;;;;10.70;3.77;;;7.10;99.90;;;;;;4879876;29;20842;-74
2023/02/06 02:15:29;;;;;;;11.48;4.35;;;7.10;99.90;;;;;;4891675;29;20455;-74
2023/02/06 02:18:03;;;;;;;16.13;3.87;;;7.10;99.90;;;;;;4880513;29;20698;-73
2023/02/06 02:21:02;;;;;;;10.40;3.60;;;7.10;99.90;;;;;;4880078;29;20446;-73
2023/02/06 02:23:39;;;;;;;9.05;3.72;;;7.10;99.90;;;;;;4895524;29;20824;-72
2023/02/06 02:26:31;;;;;;;12.13;3.87;;;7.00;99.90;;;;;;4898573;29;20222;-73
2023/02/06 02:29:30;;;;;;;8.83;2.83;;;7.00;99.90;;;;;;4888737;29;20591;-73
2023/02/06 02:32:05;;;;;;;13.80;3.43;;;7.00;99.90;;;;;;4875060;29;20969;-73
2023/02/06 02:35:00;;;;;;;11.93;3.30;;;7.00;99.90;;;;;;4868244;29;20522;-73
2023/02/06 02:38:02;;;;;;;14.77;4.27;;;7.00;99.90;;;;;;4884066;29;20222;-73
2023/02/06 02:40:52;;;;;;;11.40;3.50;;;7.00;99.90;;;;;;4899036;29;20850;-73
2023/02/06 02:43:34;;;;;;;11.40;3.47;;;7.00;99.90;;;;;;4883317;29;20302;-73
2023/02/06 02:46:43;;;;;;;10.43;3.30;;;6.90;99.90;;;;;;4906807;29;20972;-73
2023/02/06 02:49:36;;;;;;;13.13;4.10;;;7.00;99.90;;;;;;4901733;29;21078;-73
2023/02/06 02:52:03;;;;;;;11.83;3.50;;;6.90;99.90;;;;;;4898857;29;20506;-73
2023/02/06 02:54:29;;;;;;;10.30;3.83;;;6.90;99.90;;;;;;4898800;29;20778;-73
2023/02/06 02:57:05;;;;;;;9.67;3.80;;;6.90;99.90;;;;;;4867810;29;20454;-73
2023/02/06 02:59:40;;;;;;;12.60;3.73;;;6.90;99.90;;;;;;4883153;29;20963;-73
2023/02/06 03:02:18;;;;;;;10.68;3.83;;;6.90;99.90;;;;;;4884394;29;20454;-73
2023/02/06 03:04:46;;;;;;;10.82;3.70;;;6.90;99.90;;;;;;4914422;29;20266;-73
2023/02/06 03:07:39;;;;;;;12.47;3.77;;;6.90;99.90;;;;;;4898189;29;20283;-72
2023/02/06 03:10:28;;;;;;;13.98;4.05;;;6.80;99.90;;;;;;4910239;29;20428;-73
2023/02/06 03:13:03;;;;;;;13.87;3.17;;;6.90;99.90;;;;;;4898696;29;20184;-73
2023/02/06 03:15:50;;;;;;;11.97;4.03;;;6.80;99.90;;;;;;4882765;29;20510;-73
2023/02/06 03:18:22;;;;;;;9.70;3.30;;;6.80;99.90;;;;;;4905054;29;20434;-73
2023/02/06 03:20:49;;;;;;;11.18;3.15;;;6.80;99.90;;;;;;4898905;29;20449;-73
2023/02/06 03:23:27;;;;;;;12.43;4.03;;;6.80;99.90;;;;;;4882574;29;20573;-73
2023/02/06 03:25:56;;;;;;;17.63;3.83;;;6.80;99.90;;;;;;4882707;29;20215;-73
2023/02/06 03:28:47;;;;;;;13.37;4.90;;;6.80;99.90;;;;;;4909807;29;20497;-73
2023/02/06 03:31:23;;;;;;;12.45;3.45;;;6.80;99.90;;;;;;4899840;29;20447;-73
2023/02/06 03:34:13;;;;;;;12.03;3.33;;;6.80;99.90;;;;;;4879600;29;20702;-72
2023/02/06 03:36:44;;;;;;;12.50;4.00;;;6.80;99.90;;;;;;4908305;29;20459;-73
2023/02/06 03:39:13;;;;;;;14.60;3.77;;;6.70;99.90;;;;;;4917309;29;20444;-73
2023/02/06 03:41:40;;;;;;;8.20;3.50;;;6.70;99.90;;;;;;4888588;29;20438;-73
2023/02/06 03:44:12;;;;;;;14.43;4.00;;;6.70;99.90;;;;;;4898850;29;20254;-73
2023/02/06 03:46:41;;;;;;;11.77;3.60;;;6.70;99.90;;;;;;4897641;29;20225;-73
2023/02/06 03:49:09;;;;;;;15.68;3.60;;;6.70;99.90;;;;;;4882348;29;20488;-73
2023/02/06 03:51:47;;;;;;;15.77;4.28;;;6.70;99.90;;;;;;4886898;29;20277;-73
2023/02/06 03:54:19;;;;;;;12.27;3.70;;;6.70;99.90;;;;;;4882809;29;20180;-73
2023/02/06 03:57:06;;;;;;;6.07;3.50;;;6.70;99.90;;;;;;4898352;29;20215;-73
2023/02/06 03:59:34;;;;;;;10.47;3.60;;;6.70;99.90;;;;;;4898402;29;20486;-73
2023/02/06 04:02:06;;;;;;;16.10;4.10;;;6.70;99.90;;;;;;4898862;29;20434;-72
2023/02/06 04:04:37;;;;;;;11.48;5.10;;;6.70;99.90;;;;;;4897707;29;20805;-72
2023/02/06 04:07:17;;;;;;;5.90;3.70;;;6.70;99.90;;;;;;4885273;29;20205;-73
2023/02/06 04:09:43;;;;;;;11.73;3.57;;;6.60;99.90;;;;;;4916492;29;20189;-72
2023/02/06 04:12:09;;;;;;;10.77;3.80;;;6.70;99.90;;;;;;4894216;29;20426;-73
2023/02/06 04:14:37;;;;;;;14.93;5.03;;;6.60;99.90;;;;;;4890469;29;20171;-73
2023/02/06 04:17:04;;;;;;;15.55;3.60;;;6.60;99.90;;;;;;4881975;29;20925;-73
2023/02/06 04:19:31;;;;;;;11.13;3.63;;;6.60;99.90;;;;;;4904954;29;20730;-73
2023/02/06 04:21:57;;;;;;;10.82;3.97;;;6.60;99.90;;;;;;4888985;29;20600;-73
2023/02/06 04:24:26;;;;;;;7.90;3.85;;;6.60;99.90;;;;;;4902608;29;20218;-73
2023/02/06 04:26:52;;;;;;;11.75;3.92;;;6.60;99.90;;;;;;4900447;29;20693;-73
2023/02/06 04:29:20;;;;;;;9.40;3.10;;;6.60;99.90;;;;;;4900918;29;20187;-73
2023/02/06 04:31:47;;;;;;;9.30;3.30;;;6.50;99.90;;;;;;4914242;29;20246;-73
2023/02/06 04:34:13;;;;;;;10.32;3.75;;;6.60;99.90;;;;;;4892973;29;20909;-73
2023/02/06 04:36:41;;;;;;;13.07;3.83;;;6.60;99.90;;;;;;4897173;29;20218;-73
2023/02/06 04:39:07;;;;;;;17.38;4.38;;;6.50;99.90;;;;;;4898069;29;20265;-73
2023/02/06 04:41:33;;;;;;;8.23;3.75;;;6.50;99.90;;;;;;4897034;29;20636;-73
2023/02/06 04:43:59;;;;;;;11.73;3.97;;;6.50;99.90;;;;;;4881129;29;20224;-73
2023/02/06 04:46:26;;;;;;;13.52;4.15;;;6.50;99.90;;;;;;4865993;29;20458;-73
2023/02/06 04:48:54;;;;;;;13.00;3.55;;;6.50;99.90;;;;;;4897107;29;20217;-73
2023/02/06 04:51:20;;;;;;;8.45;3.80;;;6.50;99.90;;;;;;4881163;29;20266;-73
2023/02/06 04:53:46;;;;;;;10.80;3.83;;;6.50;99.90;;;;;;4896558;29;20178;-73
2023/02/06 04:56:12;;;;;;;15.70;3.93;;;6.50;99.90;;;;;;4896831;29;21047;-73
2023/02/06 04:58:39;;;;;;;16.17;4.80;;;6.40;99.90;;;;;;4897677;29;20438;-73
2023/02/06 05:01:07;;;;;;;11.15;3.78;;;6.40;99.90;;;;;;4893143;29;20195;-72
2023/02/06 05:03:35;;;;;;;12.02;4.28;;;6.40;99.90;;;;;;4894368;29;20231;-73
2023/02/06 05:06:04;;;;;;;16.53;4.90;;;6.40;99.90;;;;;;4896246;29;20567;-73
2023/02/06 05:08:30;;;;;;;11.00;4.00;;;6.40;99.90;;;;;;4896421;29;20433;-73
2023/02/06 05:10:59;;;;;;;12.20;4.40;;;6.40;99.90;;;;;;4880958;29;20293;-73
2023/02/06 05:13:25;;;;;;;12.40;3.88;;;6.40;99.90;;;;;;4897217;29;20183;-73
2023/02/06 05:15:53;;;;;;;13.13;4.32;;;6.40;99.90;;;;;;4896858;29;20217;-73
2023/02/06 05:18:24;;;;;;;12.03;3.70;;;6.40;99.90;;;;;;4890909;29;20191;-73
2023/02/06 05:20:53;;;;;;;7.88;3.35;;;6.40;99.90;;;;;;4883855;29;20420;-73
2023/02/06 05:23:18;;;;;;;10.80;3.80;;;6.40;99.90;;;;;;4883210;29;20590;-73
2023/02/06 05:25:44;;;;;;;11.50;4.67;;;6.40;99.90;;;;;;4893561;29;20308;-73
2023/02/06 05:28:10;;;;;;;11.50;3.97;;;6.40;99.90;;;;;;4901997;29;20799;-73
2023/02/06 05:30:36;;;;;;;17.30;3.57;;;6.40;99.90;;;;;;4897432;29;20454;-73
2023/02/06 05:33:07;;;;;;;10.88;3.90;;;6.30;99.90;;;;;;4880857;29;20472;-73
2023/02/06 05:35:33;;;;;;;9.00;4.53;;;6.30;99.90;;;;;;4886780;29;20213;-73
2023/02/06 05:37:59;;;;;;;16.90;3.50;;;6.30;99.90;;;;;;4916083;29;20178;-73
2023/02/06 05:40:25;;;;;;;10.23;4.17;;;6.30;99.90;;;;;;4907446;29;20213;-74
2023/02/06 05:42:53;;;;;;;14.35;4.22;;;6.30;99.90;;;;;;4902166;29;20475;-74
2023/02/06 05:45:19;;;;;;;14.23;3.80;;;6.30;99.90;;;;;;4895856;29;20923;-74
2023/02/06 05:47:47;;;;;;;13.17;4.80;;;6.30;99.90;;;;;;4896267;29;20445;-74
2023/02/06 05:50:14;;;;;;;15.40;5.07;;;6.30;99.90;;;;;;4896885;29;20439;-74
2023/02/06 05:52:40;;;;;;;16.35;4.25;;;6.30;99.90;;;;;;4880478;29;20278;-74
2023/02/06 05:55:07;;;;;;;16.25;4.88;;;6.30;99.90;;;;;;4903429;29;20263;-74
2023/02/06 05:57:33;;;;;;;13.15;3.97;;;6.30;99.90;;;;;;4906633;29;20170;-74
2023/02/06 05:59:59;;;;;;;27.83;6.15;;;6.30;99.90;;;;;;4896387;29;20179;-74
2023/02/06 06:02:28;;;;;;;15.52;4.15;;;6.30;99.90;;;;;;4880107;29;20222;-74
2023/02/06 06:04:54;;;;;;;16.23;4.20;;;6.30;99.90;;;;;;4896912;29;20199;-74
2023/02/06 06:07:20;;;;;;;22.10;4.53;;;6.30;99.90;;;;;;4898210;29;20213;-74
2023/02/06 06:09:46;;;;;;;16.30;4.00;;;6.30;99.90;;;;;;4898442;29;20179;-74
2023/02/06 06:12:12;;;;;;;21.70;5.82;;;6.30;99.90;;;;;;4882487;29;20462;-74
2023/02/06 06:14:39;;;;;;;10.43;4.35;;;6.30;99.90;;;;;;4883207;29;20445;-74
2023/02/06 06:17:07;;;;;;;15.70;3.97;;;6.20;99.90;;;;;;4882674;29;20297;-74
2023/02/06 06:19:33;;;;;;;19.67;5.20;;;6.20;99.90;;;;;;4899132;29;20171;-74
2023/02/06 06:21:59;;;;;;;14.52;4.90;;;6.20;99.90;;;;;;4899830;29;20210;-74
2023/02/06 06:24:25;;;;;;;20.80;5.75;;;6.20;99.90;;;;;;4897097;29;20220;-74
2023/02/06 06:26:51;;;;;;;17.63;4.90;;;6.20;99.90;;;;;;4898814;29;20211;-74
2023/02/06 06:29:17;;;;;;;15.68;4.22;;;6.20;99.90;;;;;;4899253;29;20395;-74
2023/02/06 06:31:43;;;;;;;17.83;5.90;;;6.20;99.90;;;;;;4898850;29;20182;-74
2023/02/06 06:34:11;;;;;;;21.23;5.40;;;6.20;99.90;;;;;;4900371;29;20179;-74
2023/02/06 06:36:37;;;;;;;19.17;4.95;;;6.20;99.90;;;;;;4885429;29;20473;-74
2023/02/06 06:39:05;;;;;;;14.05;4.93;;;6.20;99.90;;;;;;4899352;29;20205;-74
2023/02/06 06:41:31;;;;;;;13.90;5.20;;;6.20;99.90;;;;;;4898356;29;20577;-74
2023/02/06 06:43:59;;;;;;;11.65;4.78;;;6.20;99.90;;;;;;4897802;29;20900;-73
2023/02/06 06:46:25;;;;;;;22.70;5.57;;;6.20;99.90;;;;;;4897857;29;20202;-74
2023/02/06 06:48:51;;;;;;;12.80;5.30;;;6.20;99.90;;;;;;4883377;29;20191;-74
2023/02/06 06:51:17;;;;;;;18.63;5.88;;;6.20;99.90;;;;;;4898582;29;20271;-74
2023/02/06 06:53:45;;;;;;;18.23;6.30;;;6.20;99.90;;;;;;4879300;29;20211;-74
2023/02/06 06:56:17;;;;;;;15.07;6.60;;;6.20;99.90;;;;;;4897938;29;20467;-74
2023/02/06 06:58:47;;;;;;;16.90;6.80;;;6.20;99.90;;;;;;4882698;29;20858;-74
2023/02/06 07:01:13;;;;;;;11.00;5.72;;;6.10;99.90;;;;;;4882713;29;20217;-74
2023/02/06 07:03:43;;;;;;;17.92;6.45;;;6.20;99.90;;;;;;4867013;29;20219;-74
2023/02/06 07:06:10;;;;;;;13.32;5.38;;;6.10;99.90;;;;;;4899425;29;20194;-72
2023/02/06 07:08:40;;;;;;;14.80;5.80;;;6.10;99.90;;;;;;4884685;29;20186;-72
2023/02/06 07:11:08;;;;;;;16.42;6.03;;;6.10;99.90;;;;;;4882237;29;20233;-72
2023/02/06 07:13:35;;;;;;;10.15;5.30;;;6.10;99.90;;;;;;4897443;29;20214;-72
2023/02/06 07:16:03;;;;;;;14.52;6.03;;;6.10;99.90;;;;;;4897447;29;20207;-72
2023/02/06 07:18:29;;;;;;;12.30;6.40;;;6.10;99.90;;;;;;4912333;29;20175;-72
2023/02/06 07:20:58;;;;;;;15.13;5.78;;;6.10;99.90;;;;;;4897360;29;20209;-72
2023/02/06 07:23:24;;;;;;;10.43;5.20;;;6.10;99.90;;;;;;4866733;29;20222;-72
2023/02/06 07:25:50;;;;;;;12.80;5.40;;;6.10;99.90;;;;;;4897720;29;20571;-72
2023/02/06 07:28:16;;;;;;;10.82;5.55;;;6.10;99.90;;;;;;4897412;29;20198;-73
2023/02/06 07:30:42;;;;;;;11.52;5.43;;;6.10;99.90;;;;;;4883150;29;20186;-72
2023/02/06 07:33:08;;;;;;;14.37;6.10;;;6.00;99.90;;;;;;4867043;29;20197;-72
2023/02/06 07:35:36;;;;;;;9.20;5.63;;;6.10;99.90;;;;;;4897819;29;20462;-72
2023/02/06 07:38:05;;;;;;;14.52;6.40;;;6.00;99.90;;;;;;4882680;29;20402;-73
2023/02/06 07:40:33;;;;;;;13.37;6.17;;;6.10;99.90;;;;;;4878572;29;20261;-74
2023/02/06 07:42:59;;;;;;;13.98;6.55;;;6.10;99.90;;;;;;4896329;29;20563;-72
2023/02/06 07:45:35;;;;;;;12.17;5.20;;;6.10;99.90;;;;;;4882019;29;20256;-72
2023/02/06 07:48:04;;;;;;;17.23;6.88;;;6.10;99.90;;;;;;4882538;29;20445;-72
2023/02/06 07:50:31;;;;;;;13.52;6.10;;;6.10;99.90;;;;;;4898923;29;20162;-72
2023/02/06 07:52:57;;;;;;;16.05;5.80;;;6.10;99.90;;;;;;4897233;29;20180;-72
2023/02/06 07:55:23;;;;;;;15.20;6.72;;;6.10;99.90;;;;;;4898522;29;20206;-72
2023/02/06 07:57:49;;;;;;;14.80;5.97;;;6.10;99.90;;;;;;4881449;29;20193;-72
2023/02/06 08:00:16;;;;;;;10.57;5.53;;;6.10;99.90;;;;;;4881925;29;20466;-72
2023/02/06 08:02:42;;;;;;;14.10;5.85;;;6.10;99.90;;;;;;4897161;29;20198;-72
2023/02/06 08:05:08;;;;;;;11.40;5.33;;;6.10;99.90;;;;;;4898546;29;20616;-72
2023/02/06 08:07:34;;;;;;;13.10;6.32;;;6.10;99.90;;;;;;4897397;29;20424;-72
2023/02/06 08:10:00;;;;;;;14.82;5.60;;;6.10;99.90;;;;;;4897394;29;20222;-72
2023/02/06 08:12:31;;;;;;;10.73;5.47;;;6.10;99.90;;;;;;4899011;29;20261;-72
2023/02/06 08:14:56;;;;;;;14.00;6.28;;;6.10;99.90;;;;;;4881657;29;20258;-72
2023/02/06 08:17:28;;;;;;;10.23;5.53;;;6.00;99.90;;;;;;4881667;29;20208;-73
2023/02/06 08:19:56;;;;;;;12.68;6.18;;;6.00;99.90;;;;;;4897243;29;20174;-72
2023/02/06 08:22:22;;;;;;;10.07;5.70;;;6.00;99.90;;;;;;4881994;29;20190;-72
2023/02/06 08:24:54;;;;;;;12.50;6.03;;;6.10;99.90;;;;;;4897276;29;20300;-72
2023/02/06 08:27:22;;;;;;;9.25;5.45;;;6.00;99.90;;;;;;4897386;29;20206;-72
2023/02/06 08:29:53;;;;;;;9.33;5.10;;;6.00;99.90;;;;;;4897673;29;20225;-72
2023/02/06 08:32:19;;;;;;;10.05;5.55;;;6.00;99.90;;;;;;4897356;29;20996;-72
2023/02/06 08:34:45;;;;;;;11.77;6.70;;;6.00;99.90;;;;;;4896764;29;20185;-72
2023/02/06 08:37:11;;;;;;;10.30;5.43;;;6.10;99.90;;;;;;4898250;29;20434;-72
2023/02/06 08:39:39;;;;;;;13.60;5.63;;;6.10;99.90;;;;;;4899398;29;20436;-72
2023/02/06 08:42:05;;;;;;;11.85;5.47;;;6.10;99.90;;;;;;4908214;29;20443;-72
2023/02/06 08:44:31;;;;;;;10.32;6.18;;;6.10;99.90;;;;;;4896115;29;20588;-72
2023/02/06 08:47:00;;;;;;;12.32;5.40;;;6.10;99.90;;;;;;4879689;29;20259;-72
2023/02/06 08:49:29;;;;;;;12.23;5.55;;;6.10;99.90;;;;;;4881522;29;20214;-72
2023/02/06 08:51:55;;;;;;;10.50;5.45;;;6.10;99.90;;;;;;4866027;29;20185;-72
2023/02/06 08:54:24;;;;;;;7.90;5.32;;;6.10;99.90;;;;;;4881396;29;20223;-72
2023/02/06 08:56:51;;;;;;;13.43;5.53;;;6.10;99.90;;;;;;4865152;29;20302;-72
2023/02/06 08:59:24;;;;;;;12.15;6.15;;;6.10;99.90;;;;;;4897235;29;20194;-72
2023/02/06 09:01:50;;;;;;;10.20;6.00;;;6.10;99.90;;;;;;4880273;29;20190;-72
2023/02/06 09:04:19;;;;;;;9.05;5.00;;;6.10;99.90;;;;;;4879796;29;20275;-72
2023/02/06 09:06:47;;;;;;;9.68;5.63;;;6.00;99.90;;;;;;4879852;29;20254;-72
2023/02/06 09:09:16;;;;;;;15.18;6.22;;;6.10;99.90;;;;;;4896765;29;20189;-72
2023/02/06 09:11:42;;;;;;;11.68;5.82;;;6.10;99.90;;;;;;4864640;29;20218;-72
2023/02/06 09:14:15;;;;;;;12.05;5.65;;;6.10;99.90;;;;;;4880741;29;20214;-72
2023/02/06 09:16:43;;;;;;;11.55;6.55;;;6.10;99.90;;;;;;4895586;29;20235;-72
2023/02/06 09:19:12;;;;;;;14.07;7.20;;;6.10;99.90;;;;;;4895634;29;20201;-72
2023/02/06 09:21:39;;;;;;;11.82;6.15;;;6.10;99.90;;;;;;4880064;29;20186;-72
2023/02/06 09:24:07;;;;;;;11.27;6.03;;;6.10;99.90;;;;;;4895340;29;20223;-72
2023/02/06 09:26:39;;;;;;;12.80;6.20;;;6.10;99.90;;;;;;4896091;29;20206;-72
2023/02/06 09:29:07;;;;;;;12.82;5.40;;;6.10;99.90;;;;;;4880260;29;20221;-72
2023/02/06 09:31:38;;;;;;;11.02;6.30;;;6.10;99.90;;;;;;4897214;29;20739;-73
2023/02/06 09:34:05;;;;;;;12.07;6.10;;;6.10;99.90;;;;;;4963001;23;20230;-78
2023/02/06 09:36:33;;;;;;;10.77;5.93;;;6.10;99.90;;;;;;4906161;29;20211;-78
2023/02/06 09:39:06;;;;;;;9.77;5.55;;;6.10;99.90;;;;;;4915653;29;20233;-77
2023/02/06 09:41:46;;;;;;;12.35;6.20;;;6.10;99.90;;;;;;4931663;29;20188;-77
2023/02/06 09:44:33;;;;;;;12.63;6.20;;;6.10;99.90;;;;;;4899995;29;20679;-77
2023/02/06 09:47:32;;;;;;;10.07;5.78;;;6.10;99.90;;;;;;4915617;29;20348;-78
2023/02/06 09:50:16;;;;;;;15.50;5.97;;;6.10;99.90;;;;;;4911426;29;20182;-77
2023/02/06 09:53:04;;;;;;;13.35;5.75;;;6.10;99.90;;;;;;4908838;29;20183;-78
2023/02/06 09:55:36;;;;;;;12.90;5.97;;;6.10;99.90;;;;;;4931148;29;20264;-78
2023/02/06 09:58:05;;;;;;;11.48;5.88;;;6.10;99.90;;;;;;4912343;29;20195;-78
2023/02/06 10:00:38;;;;;;;12.63;5.80;;;6.10;99.90;;;;;;4931172;29;20594;-77
2023/02/06 10:03:33;;;;;;;13.38;7.57;;;6.10;99.90;;;;;;4899424;29;20211;-77
2023/02/06 10:06:05;;;;;;;11.27;6.35;;;6.10;99.90;;;;;;4905021;29;20675;-77
2023/02/06 10:08:39;;;;;;;12.45;5.40;;;6.10;99.90;;;;;;4915162;29;20658;-81
2023/02/06 10:11:29;;;;;;;15.73;6.20;;;6.10;99.90;;;;;;4913433;29;20248;-77
2023/02/06 10:14:06;;;;;;;13.30;6.50;;;6.10;99.90;;;;;;4916192;29;20217;-77
2023/02/06 10:16:53;;;;;;;11.27;6.50;;;6.10;99.90;;;;;;4916390;29;20197;-78
2023/02/06 10:19:52;;;;;;;13.82;6.40;;;6.10;99.90;;;;;;4899862;29;20233;-77
2023/02/06 10:22:53;;;;;;;13.73;6.30;;;6.10;99.90;;;;;;4900003;29;20193;-78
2023/02/06 10:25:39;;;;;;;15.20;6.70;;;6.10;99.90;;;;;;4916304;29;20250;-78
2023/02/06 10:28:28;;;;;;;13.60;7.25;;;6.10;99.90;;;;;;4916833;29;20559;-77
2023/02/06 10:31:16;;;;;;;21.95;7.18;;;6.10;99.90;;;;;;4900616;29;20300;-78
2023/02/06 10:33:51;;;;;;;15.25;8.75;;;6.10;99.90;;;;;;4917602;29;20663;-78
2023/02/06 10:36:26;;;;;;;13.88;7.70;;;6.10;99.90;;;;;;4916198;29;20205;-78
2023/02/06 10:39:29;;;;;;;11.33;6.57;;;6.10;99.90;;;;;;4916753;29;20181;-78
2023/02/06 10:42:12;;;;;;;17.27;8.68;;;6.10;99.90;;;;;;4901370;29;20417;-78
2023/02/06 10:45:12;;;;;;;14.65;7.72;;;6.10;99.90;;;;;;4901480;29;20188;-78
2023/02/06 10:47:53;;;;;;;17.25;9.68;;;6.20;99.90;;;;;;4845303;29;20193;-78
2023/02/06 10:50:25;;;;;;;14.73;8.45;;;6.20;99.90;;;;;;4916376;29;20238;-78
2023/02/06 10:52:59;;;;;;;16.30;8.75;;;6.20;99.90;;;;;;4920292;29;20194;-78
2023/02/06 10:55:34;;;;;;;16.10;9.38;;;6.20;99.90;;;;;;4919735;29;20211;-78
2023/02/06 10:58:15;;;;;;;14.13;7.80;;;6.20;99.90;;;;;;4920656;29;20177;-78
2023/02/06 11:00:44;;;;;;;19.67;9.85;;;6.20;99.90;;;;;;4919901;29;20218;-78
2023/02/06 11:03:17;;;;;;;18.73;8.45;;;6.20;99.90;;;;;;4920709;29;20216;-78
2023/02/06 11:05:44;;;;;;;18.27;8.43;;;6.20;99.90;;;;;;4913168;29;20228;-78
2023/02/06 11:08:13;;;;;;;14.57;8.18;;;6.20;99.90;;;;;;4934795;29;20163;-78
2023/02/06 11:10:42;;;;;;;18.60;7.95;;;6.20;99.90;;;;;;4903995;29;20189;-78
2023/02/06 11:13:35;;;;;;;17.73;7.17;;;6.20;99.90;;;;;;4935070;29;20186;-78
2023/02/06 11:16:07;;;;;;;15.75;8.00;;;6.20;99.90;;;;;;4888074;29;20477;-78
2023/02/06 11:18:44;;;;;;;19.92;9.00;;;6.20;99.90;;;;;;4903701;29;20213;-78
2023/02/06 11:21:12;;;;;;;22.42;9.85;;;6.20;99.90;;;;;;4908340;29;20179;-78
2023/02/06 11:23:39;;;;;;;17.77;8.55;;;6.20;99.90;;;;;;4899989;29;20205;-78
2023/02/06 11:26:05;;;;;;;17.20;8.75;;;6.20;99.90;;;;;;4884377;29;20208;-77
2023/02/06 11:28:33;;;;;;;13.52;7.20;;;6.20;99.90;;;;;;4900514;29;20295;-77
2023/02/06 11:31:05;;;;;;;17.20;7.95;;;6.20;99.90;;;;;;4920637;29;20175;-78
2023/02/06 11:33:38;;;;;;;20.88;8.60;;;6.20;99.90;;;;;;4904433;29;20290;-75
2023/02/06 11:36:17;;;;;;;21.10;9.85;;;6.20;99.90;;;;;;4918576;29;20248;-77
2023/02/06 11:38:54;;;;;;;19.52;9.68;;;6.20;99.90;;;;;;4919504;29;20167;-78
2023/02/06 11:41:23;;;;;;;20.43;9.30;;;6.20;99.90;;;;;;4934678;29;20194;-78
2023/02/06 11:44:01;;;;;;;23.40;9.80;;;6.20;99.90;;;;;;4899252;29;20466;-77
2023/02/06 11:46:33;;;;;;;18.08;8.40;;;6.20;99.90;;;;;;4899401;29;20208;-78
2023/02/06 11:49:10;;;;;;;14.75;8.93;;;6.20;99.90;;;;;;4933071;29;20177;-78
2023/02/06 11:51:54;;;;;;;18.77;9.70;;;6.20;99.90;;;;;;4929396;29;20234;-78
2023/02/06 11:54:27;;;;;;;17.30;7.18;;;6.20;99.90;;;;;;4920675;29;20215;-77
2023/02/06 11:57:22;;;;;;;19.02;8.00;;;6.20;99.90;;;;;;4920977;29;20259;-77
2023/02/06 11:59:54;;;;;;;16.08;8.00;;;6.20;99.90;;;;;;4937264;29;20658;-77
2023/02/06 12:02:31;;;;;;;11.18;7.90;;;6.20;99.90;;;;;;4937347;29;20666;-78
2023/02/06 12:05:15;;;;;;;18.17;8.13;;;6.30;99.90;;;;;;4952475;29;20649;-77
2023/02/06 12:07:45;;;;;;;15.73;7.93;;;6.30;99.90;;;;;;4952579;29;20899;-78
2023/02/06 12:10:19;;;;;;;14.02;7.75;;;6.30;99.90;;;;;;4937760;29;20157;-77
2023/02/06 12:12:51;;;;;;;13.18;7.88;;;6.30;99.90;;;;;;4936921;29;20209;-77
2023/02/06 12:15:38;;;;;;;18.70;7.85;;;6.30;99.90;;;;;;4936824;29;20562;-77
2023/02/06 12:18:26;;;;;;;20.30;8.90;;;6.30;99.90;;;;;;4936833;29;20268;-78
2023/02/06 12:21:05;;;;;;;17.25;8.18;;;6.30;99.90;;;;;;4952686;29;20161;-77
2023/02/06 12:23:39;;;;;;;23.95;8.80;;;6.30;99.90;;;;;;4936645;29;20215;-78
2023/02/06 12:26:10;;;;;;;15.45;8.40;;;6.30;99.90;;;;;;4946234;29;20204;-78
2023/02/06 12:28:48;;;;;;;21.70;9.30;;;6.30;99.90;;;;;;4938289;29;20538;-78
2023/02/06 12:31:35;;;;;;;18.05;10.02;;;6.30;99.90;;;;;;4924877;29;20258;-78
2023/02/06 12:34:19;;;;;;;22.47;10.00;;;6.30;99.90;;;;;;4918177;29;20229;-78
2023/02/06 12:36:59;;;;;;;16.98;9.10;;;6.30;99.90;;;;;;4903032;29;20509;-78
2023/02/06 12:39:31;;;;;;;18.58;8.82;;;6.30;99.90;;;;;;4918868;29;20285;-78
2023/02/06 12:41:59;;;;;;;20.88;10.45;;;6.40;99.90;;;;;;4917543;29;20193;-78
2023/02/06 12:44:56;;;;;;;21.25;8.65;;;6.40;99.90;;;;;;4903038;29;20202;-78
2023/02/06 12:47:58;;;;;;;15.77;8.48;;;6.40;99.90;;;;;;4921375;29;20280;-78
2023/02/06 12:50:44;;;;;;;16.73;9.40;;;6.40;99.90;;;;;;4901783;29;20655;-78
2023/02/06 12:53:25;;;;;;;17.40;9.10;;;6.40;99.90;;;;;;4934268;29;20172;-78
2023/02/06 12:56:00;;;;;;;21.23;10.10;;;6.40;99.90;;;;;;4905879;29;20281;-78
2023/02/06 12:58:41;;;;;;;21.23;9.68;;;6.40;99.90;;;;;;4899611;29;20187;-79
2023/02/06 13:01:11;;;;;;;19.20;9.00;;;6.40;99.90;;;;;;4904572;29;20174;-79
2023/02/06 13:03:43;;;;;;;17.42;8.88;;;6.40;99.90;;;;;;4918688;29;20243;-79
2023/02/06 13:06:21;;;;;;;23.08;9.45;;;6.40;99.90;;;;;;4918927;29;20205;-79
2023/02/06 13:08:58;;;;;;;16.92;8.43;;;6.40;99.90;;;;;;4919476;29;20185;-78
2023/02/06 13:11:37;;;;;;;20.40;8.85;;;6.40;99.90;;;;;;4919138;29;20333;-79
2023/02/06 13:14:18;;;;;;;21.38;9.85;;;6.50;99.90;;;;;;4912317;29;20224;-79